Météo Nord-Pas-de-Calais   La météo au plus près de chez vous

Station météorologique

Observations météo à Rocroi (08367)

08367002 382 m Dernier relevé à 10:06
14.6°C
Humidité 94 % Vent 9.7 km/h

Journée consultée

Mardi 1 Septembre 2026

Synthèse de la journée

Périodes de référence en UTC

Température maximale

14.6°C

à 10:06

06h 06h

Température minimale

13.1°C

à 06:30

18h 18h

Rafale maximale

18 km/h

à 08:54

00h 00h

Précipitations

0 mm

Cumul quotidien

06h 06h

Graphiques de la journée

Heure locale Réduire

Données détaillées

Relevés météo

Pas de 6 minutes Afficher les relevés infra-horaires
Relevés météo détaillés à Rocroi pour le Mardi 1 Septembre 2026
Heure Température °C Point de rosée °C Humidité % Vent moyen (raf.), km/h Précipitations mm
10:06 14.6 °C 13.5 °C 93 % 10 km/h (18 km/h) 0 mm0 mm
10:00 14.3 °C 13.2 °C 93 % 11 km/h (18 km/h) 0 mm0 mm
09:54 14.1 °C 13.1 °C 94 % 10 km/h (17 km/h) 0 mm0 mm
09:48 14 °C 12.9 °C 93 % 12 km/h (18 km/h) 0 mm0 mm
09:42 14.1 °C 13 °C 93 % 11 km/h (18 km/h) 0 mm0 mm
09:36 14.2 °C 13.1 °C 93 % 9 km/h (16 km/h) 0 mm0 mm
09:30 14.2 °C 13.2 °C 94 % 10 km/h (17 km/h) 0 mm0 mm
09:24 14.1 °C 13.1 °C 94 % 10 km/h (17 km/h) 0 mm0 mm
09:18 14 °C 13 °C 94 % 9 km/h (17 km/h) 0 mm0 mm
09:12 14 °C 13 °C 94 % 10 km/h (17 km/h) 0 mm0 mm
09:06 13.9 °C 12.9 °C 94 % 10 km/h (16 km/h) 0 mm0 mm
09:00 13.9 °C 13.1 °C 95 % 10 km/h (18 km/h) 0 mm0 mm
08:54 13.9 °C 13.1 °C 95 % 12 km/h (18 km/h) 0 mm0 mm
08:48 13.9 °C 13.3 °C 96 % 10 km/h (16 km/h) 0 mm0 mm
08:42 13.8 °C 13.2 °C 96 % 10 km/h (17 km/h) 0 mm0 mm
08:36 13.8 °C 13.3 °C 97 %
08:24 13.6 °C 13.1 °C 97 % 9 km/h (14 km/h) 0 mm0 mm
08:18 13.6 °C 13.3 °C 98 % 9 km/h (16 km/h) 0 mm0 mm
08:12 13.5 °C 13 °C 97 % 10 km/h (16 km/h) 0 mm0 mm
08:06 13.4 °C 12.9 °C 97 % 9 km/h (14 km/h) 0 mm0 mm
08:00 13.4 °C 12.9 °C 97 % 9 km/h (15 km/h) 0 mm0 mm
07:54 13.3 °C 12.8 °C 97 % 10 km/h (16 km/h) 0 mm0 mm
07:48 13.4 °C 12.9 °C 97 % 9 km/h (14 km/h) 0 mm0 mm
07:42 13.4 °C 12.9 °C 97 % 8 km/h (13 km/h) 0 mm0 mm
07:36 13.4 °C 12.9 °C 97 % 8 km/h (14 km/h) 0 mm0 mm
07:30 13.4 °C 12.9 °C 97 % 7 km/h (12 km/h) 0 mm0 mm
07:24 13.4 °C 12.9 °C 97 % 8 km/h (15 km/h) 0 mm0 mm
07:18 13.4 °C 12.9 °C 97 % 9 km/h (15 km/h) 0 mm0 mm
07:12 13.3 °C 12.8 °C 97 % 9 km/h (16 km/h) 0 mm0 mm
07:06 13.3 °C 12.8 °C 97 % 8 km/h (16 km/h) 0 mm0 mm
07:00 13.3 °C 12.8 °C 97 % 8 km/h (15 km/h) 0 mm0 mm
06:54 13.2 °C 12.7 °C 97 % 9 km/h (15 km/h) 0 mm0 mm
06:48 13.2 °C 12.6 °C 96 % 9 km/h (15 km/h) 0 mm0 mm
06:42 13.1 °C 12.5 °C 96 % 9 km/h (16 km/h) 0 mm0 mm
06:36 13.1 °C 12.5 °C 96 % 10 km/h (18 km/h) 0 mm0 mm
06:30 13.1 °C 12.3 °C 95 % 8 km/h (17 km/h) 0 mm0 mm
06:24 13.2 °C 12.3 °C 94 % 8 km/h (11 km/h) 0 mm0 mm
06:18 13.3 °C 12.4 °C 94 % 8 km/h (13 km/h) 0 mm0 mm
06:12 13.4 °C 12.5 °C 94 % 7 km/h (13 km/h) 0 mm0 mm
06:06 13.3 °C 12.4 °C 94 % 7 km/h (12 km/h) 0 mm0 mm
06:00 13.3 °C 12.4 °C 94 % 7 km/h (12 km/h) 0 mm0 mm
05:54 13.4 °C 12.5 °C 94 % 8 km/h (12 km/h) 0 mm0 mm
05:48 13.4 °C 12.3 °C 93 % 9 km/h (13 km/h) 0 mm0 mm
05:42 13.4 °C 12.3 °C 93 % 9 km/h (14 km/h) 0 mm0 mm
05:36 13.5 °C 12.4 °C 93 % 9 km/h (15 km/h) 0 mm0 mm
05:30 13.5 °C 12.4 °C 93 % 10 km/h (15 km/h) 0 mm0 mm
05:24 13.5 °C 12.4 °C 93 % 11 km/h (15 km/h) 0 mm0 mm
05:18 13.5 °C 12.4 °C 93 % 10 km/h (16 km/h) 0 mm0 mm
05:12 13.5 °C 12.2 °C 92 % 9 km/h (16 km/h) 0 mm0 mm
05:06 13.5 °C 12.2 °C 92 % 9 km/h (15 km/h) 0 mm0 mm
05:00 13.5 °C 12.2 °C 92 % 8 km/h (15 km/h) 0 mm0 mm
04:54 13.5 °C 12.2 °C 92 % 9 km/h (15 km/h) 0 mm0 mm
04:48 13.5 °C 12.2 °C 92 % 9 km/h (15 km/h) 0 mm0 mm
04:42 13.5 °C 12.2 °C 92 % 9 km/h (15 km/h) 0 mm0 mm
04:36 13.5 °C 12.2 °C 92 % 10 km/h (16 km/h) 0 mm0 mm
04:30 13.5 °C 12.2 °C 92 % 10 km/h (16 km/h) 0 mm0 mm
04:24 13.4 °C 12.1 °C 92 % 10 km/h (15 km/h) 0 mm0 mm
04:18 13.4 °C 12.1 °C 92 % 9 km/h (15 km/h) 0 mm0 mm
04:12 13.4 °C 12.1 °C 92 % 9 km/h (17 km/h) 0 mm0 mm
04:06 13.3 °C 12 °C 92 % 10 km/h (17 km/h) 0 mm0 mm
04:00 13.3 °C 12 °C 92 % 11 km/h (15 km/h) 0 mm0 mm
03:54 13.2 °C 11.9 °C 92 % 10 km/h (14 km/h) 0 mm0 mm
03:48 13.3 °C 11.9 °C 91 % 8 km/h (14 km/h) 0 mm0 mm
03:42 13.4 °C 12 °C 91 % 8 km/h (14 km/h) 0 mm0 mm
03:36 13.4 °C 12 °C 91 % 10 km/h (17 km/h) 0 mm0 mm
03:30 13.4 °C 12 °C 91 % 9 km/h (14 km/h) 0 mm0 mm
03:24 13.3 °C 11.9 °C 91 % 8 km/h (14 km/h) 0 mm0 mm
03:18 13.3 °C 11.7 °C 90 % 9 km/h (15 km/h) 0 mm0 mm
03:12 13.4 °C 11.8 °C 90 % 9 km/h (15 km/h) 0 mm0 mm
03:06 13.4 °C 11.8 °C 90 % 9 km/h (15 km/h) 0 mm0 mm
03:00 13.4 °C 11.8 °C 90 % 10 km/h (15 km/h) 0 mm0 mm
02:54 13.5 °C 11.7 °C 89 % 9 km/h (15 km/h) 0 mm0 mm
02:48 13.6 °C 11.8 °C 89 % 9 km/h (15 km/h) 0 mm0 mm
02:42 13.6 °C 11.8 °C 89 % 9 km/h (17 km/h) 0 mm0 mm
02:36 13.6 °C 11.6 °C 88 % 8 km/h (17 km/h) 0 mm0 mm
02:30 13.7 °C 11.7 °C 88 % 8 km/h (15 km/h) 0 mm0 mm
02:24 13.6 °C 11.6 °C 88 % 8 km/h (16 km/h) 0 mm0 mm
02:18 13.7 °C 11.7 °C 88 % 9 km/h (18 km/h) 0 mm0 mm
02:12 13.7 °C 11.7 °C 88 % 10 km/h (16 km/h) 0 mm0 mm
02:06 13.8 °C 11.8 °C 88 % 9 km/h (17 km/h) 0 mm0 mm
02:00 13.8 °C 11.7 °C 87 % 9 km/h (17 km/h) 0 mm0 mm
01:54 13.8 °C 11.7 °C 87 % 10 km/h (16 km/h) 0 mm0 mm
01:48 13.9 °C 11.8 °C 87 % 10 km/h (16 km/h) 0 mm0 mm
01:42 13.9 °C 11.8 °C 87 % 10 km/h (18 km/h) 0 mm0 mm
01:36 13.9 °C 11.8 °C 87 % 9 km/h (15 km/h) 0 mm0 mm
01:30 13.9 °C 11.8 °C 87 % 8 km/h (15 km/h) 0 mm0 mm
01:24 13.9 °C 11.8 °C 87 % 8 km/h (15 km/h) 0 mm0 mm
01:18 13.8 °C 11.8 °C 88 % 8 km/h (15 km/h) 0 mm0 mm
01:12 13.7 °C 11.6 °C 87 % 6 km/h (12 km/h) 0 mm0 mm
01:06 13.8 °C 11.7 °C 87 % 6 km/h (14 km/h) 0 mm0 mm
01:00 13.8 °C 11.5 °C 86 % 8 km/h (17 km/h) 0 mm0 mm
00:54 13.9 °C 11.6 °C 86 % 9 km/h (17 km/h) 0 mm0 mm
00:48 13.8 °C 11.5 °C 86 % 8 km/h (15 km/h) 0 mm0 mm
00:42 13.8 °C 11.5 °C 86 % 7 km/h (13 km/h) 0 mm0 mm
00:36 13.9 °C 11.6 °C 86 % 8 km/h (15 km/h) 0 mm0 mm
00:30 13.8 °C 11.7 °C 87 % 8 km/h (15 km/h) 0 mm0 mm
00:24 13.6 °C 11.5 °C 87 % 7 km/h (12 km/h) 0 mm0 mm
00:18 13.6 °C 11.5 °C 87 % 6 km/h (12 km/h) 0 mm0 mm
00:12 13.8 °C 11.5 °C 86 % 6 km/h (12 km/h) 0 mm0 mm
00:06 13.8 °C 11.5 °C 86 % 6 km/h (12 km/h) 0 mm0 mm
00:00 13.9 °C 11.4 °C 85 % 7 km/h (12 km/h) 0 mm0 mm

Données via Météo-France

Relevés météo à Rocroi

Cette page rassemble les observations de la station de Rocroi : température, humidité, vent, précipitations et pression atmosphérique. Les graphiques facilitent le suivi de la journée, tandis que le tableau donne accès aux mesures horaires et infra-horaires disponibles.

Pour replacer ces mesures dans leur contexte, consultez la climatologie de Rocroi ainsi que ses normales et records. Retrouvez aussi la carte des observations météo en temps réel.